createdAt,value
2022-10-13T00:00:30.719Z,9.71
2022-10-13T00:01:30.683Z,9.71
2022-10-13T00:02:30.698Z,9.68
2022-10-13T00:03:30.729Z,9.86
2022-10-13T00:04:30.662Z,9.83
2022-10-13T00:05:30.670Z,9.85
2022-10-13T00:06:30.636Z,9.95
2022-10-13T00:07:30.643Z,9.86
2022-10-13T00:08:30.619Z,9.92
2022-10-13T00:09:30.627Z,9.98
2022-10-13T00:10:30.631Z,9.98
2022-10-13T00:11:30.596Z,9.96
2022-10-13T00:12:30.709Z,9.96
2022-10-13T00:13:30.663Z,9.99
2022-10-13T00:14:30.556Z,10.07
2022-10-13T00:15:30.564Z,9.96
2022-10-13T00:16:30.556Z,9.96
2022-10-13T00:17:30.540Z,9.92
2022-10-13T00:18:30.504Z,9.83
2022-10-13T00:19:31.536Z,9.95
2022-10-13T00:20:30.553Z,9.77
2022-10-13T00:21:30.475Z,9.81
2022-10-13T00:22:30.481Z,9.81
2022-10-13T00:23:30.492Z,9.89
2022-10-13T00:24:30.492Z,9.77
2022-10-13T00:25:30.456Z,9.88
2022-10-13T00:26:30.441Z,9.85
2022-10-13T00:27:30.419Z,9.92
2022-10-13T00:28:30.540Z,9.91
2022-10-13T00:29:31.241Z,9.92
2022-10-13T00:30:30.388Z,9.89
2022-10-13T00:31:30.376Z,9.85
2022-10-13T00:32:30.396Z,9.83
2022-10-13T00:33:30.406Z,9.77
2022-10-13T00:34:30.384Z,9.68
2022-10-13T00:35:30.357Z,9.81
2022-10-13T00:36:30.345Z,9.88
2022-10-13T00:37:30.356Z,9.86
2022-10-13T00:38:30.309Z,9.85
2022-10-13T00:39:30.280Z,9.85
2022-10-13T00:40:30.308Z,9.77
2022-10-13T00:41:30.301Z,9.65
2022-10-13T00:42:30.309Z,9.65
2022-10-13T00:43:30.281Z,9.65
2022-10-13T00:44:30.253Z,9.68
2022-10-13T00:45:30.268Z,9.91
2022-10-13T00:46:30.201Z,9.91
2022-10-13T00:47:30.229Z,9.83
2022-10-13T00:48:30.200Z,9.80
2022-10-13T00:49:30.181Z,9.70
2022-10-13T00:50:30.210Z,9.63
2022-10-13T00:51:30.237Z,9.53
2022-10-13T00:52:30.180Z,9.62
2022-10-13T00:53:30.162Z,9.68
2022-10-13T00:54:30.134Z,9.70
2022-10-13T00:55:30.157Z,9.62
2022-10-13T00:56:30.128Z,9.59
2022-10-13T00:57:30.102Z,9.59
2022-10-13T00:58:30.106Z,9.52
2022-10-13T00:59:30.063Z,9.48
2022-10-13T01:00:30.709Z,9.53
2022-10-13T01:01:30.070Z,9.56
2022-10-13T01:02:30.098Z,9.55
2022-10-13T01:03:30.070Z,9.53
2022-10-13T01:04:30.030Z,9.58
2022-10-13T01:05:30.017Z,9.60
2022-10-13T01:06:30.061Z,9.62
2022-10-13T01:07:29.973Z,9.53
2022-10-13T01:08:30.025Z,9.55
2022-10-13T01:09:29.959Z,9.55
2022-10-13T01:10:29.994Z,9.56
2022-10-13T01:11:29.939Z,9.53
2022-10-13T01:12:29.970Z,9.55
2022-10-13T01:13:29.935Z,9.58
2022-10-13T01:14:29.937Z,9.50
2022-10-13T01:15:29.891Z,9.44
2022-10-13T01:16:29.917Z,9.50
2022-10-13T01:17:29.876Z,9.59
2022-10-13T01:18:29.915Z,9.55
2022-10-13T01:19:29.886Z,9.60
2022-10-13T01:20:29.847Z,9.65
2022-10-13T01:21:29.843Z,9.62
2022-10-13T01:22:29.863Z,9.59
2022-10-13T01:23:29.826Z,9.65
2022-10-13T01:24:30.275Z,9.55
2022-10-13T01:25:29.788Z,9.60
2022-10-13T01:26:29.813Z,9.67
2022-10-13T01:27:29.844Z,9.65
2022-10-13T01:28:29.841Z,9.42
2022-10-13T01:29:29.834Z,9.31
2022-10-13T01:30:29.766Z,9.42
2022-10-13T01:31:29.727Z,9.38
2022-10-13T01:32:29.730Z,9.38
2022-10-13T01:33:29.715Z,9.30
2022-10-13T01:34:29.731Z,9.24
2022-10-13T01:35:29.736Z,9.32
2022-10-13T01:36:29.696Z,9.30
2022-10-13T01:37:29.657Z,9.32
2022-10-13T01:38:29.669Z,9.32
2022-10-13T01:39:29.679Z,9.22
2022-10-13T01:40:29.676Z,9.12
2022-10-13T01:41:29.672Z,9.26
2022-10-13T01:42:29.649Z,9.23
2022-10-13T01:43:29.620Z,9.24
2022-10-13T01:44:29.616Z,9.27
2022-10-13T01:45:29.615Z,9.17
2022-10-13T01:46:29.645Z,9.17
2022-10-13T01:47:29.552Z,9.19
2022-10-13T01:48:29.596Z,9.17
2022-10-13T01:49:29.547Z,9.22
2022-10-13T01:50:29.584Z,9.20
2022-10-13T01:51:30.052Z,9.17
2022-10-13T01:52:29.721Z,9.22
2022-10-13T01:53:29.513Z,9.16
2022-10-13T01:54:29.494Z,9.20
2022-10-13T01:55:29.506Z,9.17
2022-10-13T01:56:29.587Z,9.31
2022-10-13T01:57:29.480Z,9.20
2022-10-13T01:58:29.489Z,9.19
2022-10-13T01:59:29.455Z,9.16
2022-10-13T02:00:29.517Z,9.20
2022-10-13T02:01:29.452Z,9.19
2022-10-13T02:02:29.480Z,9.15
2022-10-13T02:03:29.401Z,9.16
2022-10-13T02:04:29.428Z,9.19
2022-10-13T02:05:29.396Z,9.30
2022-10-13T02:06:29.401Z,9.19
2022-10-13T02:07:30.208Z,9.22
2022-10-13T02:08:29.341Z,9.24
2022-10-13T02:09:29.464Z,9.16
2022-10-13T02:10:29.325Z,9.22
2022-10-13T02:11:29.353Z,9.15
2022-10-13T02:12:29.379Z,9.12
2022-10-13T02:13:29.322Z,9.10
2022-10-13T02:14:29.291Z,8.96
2022-10-13T02:15:29.290Z,8.94
2022-10-13T02:16:30.232Z,8.89
2022-10-13T02:17:29.226Z,8.82
2022-10-13T02:18:29.273Z,8.76
2022-10-13T02:19:29.258Z,8.68
2022-10-13T02:20:29.218Z,8.79
2022-10-13T02:21:29.217Z,8.88
2022-10-13T02:22:29.173Z,8.83
2022-10-13T02:23:29.185Z,8.83
2022-10-13T02:24:29.202Z,8.88
2022-10-13T02:25:29.185Z,8.80
2022-10-13T02:26:29.133Z,8.82
2022-10-13T02:27:29.146Z,8.73
2022-10-13T02:28:29.155Z,8.83
2022-10-13T02:29:29.094Z,8.71
2022-10-13T02:30:29.102Z,8.68
2022-10-13T02:31:29.098Z,8.58
2022-10-13T02:32:29.099Z,8.65
2022-10-13T02:33:29.806Z,8.78
2022-10-13T02:34:29.066Z,8.68
2022-10-13T02:35:29.046Z,8.71
2022-10-13T02:36:29.050Z,8.73
2022-10-13T02:37:29.082Z,8.70
2022-10-13T02:38:29.037Z,8.64
2022-10-13T02:39:29.026Z,8.68
2022-10-13T02:40:28.987Z,8.67
2022-10-13T02:41:28.982Z,8.70
2022-10-13T02:42:28.992Z,8.73
2022-10-13T02:43:29.010Z,8.80
2022-10-13T02:44:28.971Z,8.82
2022-10-13T02:45:28.915Z,8.91
2022-10-13T02:46:28.939Z,8.94
2022-10-13T02:47:28.946Z,8.94
2022-10-13T02:48:28.958Z,8.89
2022-10-13T02:49:28.878Z,8.97
2022-10-13T02:50:29.863Z,8.91
2022-10-13T02:51:28.842Z,9.03
2022-10-13T02:52:28.869Z,9.01
2022-10-13T02:53:28.930Z,9.01
2022-10-13T02:54:28.838Z,9.01
2022-10-13T02:55:28.875Z,8.97
2022-10-13T02:56:28.799Z,8.91
2022-10-13T02:57:28.776Z,8.88
2022-10-13T02:58:28.814Z,8.93
2022-10-13T02:59:28.763Z,8.91
2022-10-13T03:00:28.862Z,8.91
2022-10-13T03:01:28.796Z,8.94
2022-10-13T03:02:28.770Z,8.96
2022-10-13T03:03:28.707Z,9.00
2022-10-13T03:04:28.700Z,8.98
2022-10-13T03:05:28.703Z,8.96
2022-10-13T03:06:28.701Z,8.88
2022-10-13T03:07:28.676Z,9.00
2022-10-13T03:08:28.677Z,9.04
2022-10-13T03:09:28.645Z,9.12
2022-10-13T03:10:28.630Z,9.13
2022-10-13T03:11:28.634Z,9.19
2022-10-13T03:12:28.632Z,9.15
2022-10-13T03:13:28.597Z,9.20
2022-10-13T03:14:28.592Z,9.03
2022-10-13T03:15:28.600Z,8.82
2022-10-13T03:16:28.580Z,8.67
2022-10-13T03:17:28.571Z,8.49
2022-10-13T03:18:28.532Z,8.55
2022-10-13T03:19:28.552Z,8.46
2022-10-13T03:20:29.200Z,8.52
2022-10-13T03:21:28.529Z,8.64
2022-10-13T03:22:28.536Z,8.60
2022-10-13T03:23:28.507Z,8.78
2022-10-13T03:24:28.489Z,8.82
2022-10-13T03:25:28.477Z,8.96
2022-10-13T03:26:28.480Z,9.01
2022-10-13T03:27:28.558Z,9.10
2022-10-13T03:28:28.456Z,9.17
2022-10-13T03:29:28.431Z,9.22
2022-10-13T03:30:28.417Z,9.20
2022-10-13T03:31:28.398Z,9.19
2022-10-13T03:32:28.397Z,9.22
2022-10-13T03:33:28.384Z,9.27
2022-10-13T03:34:28.365Z,9.27
2022-10-13T03:35:28.401Z,9.23
2022-10-13T03:36:28.343Z,9.26
2022-10-13T03:37:28.346Z,9.40
2022-10-13T03:38:28.334Z,9.40
2022-10-13T03:39:28.358Z,9.40
2022-10-13T03:40:28.293Z,9.50
2022-10-13T03:41:28.298Z,9.50
2022-10-13T03:42:28.251Z,9.67
2022-10-13T03:43:28.386Z,9.55
2022-10-13T03:44:28.242Z,9.62
2022-10-13T03:45:28.247Z,9.70
2022-10-13T03:46:28.273Z,9.68
2022-10-13T03:47:28.213Z,9.65
2022-10-13T03:48:28.226Z,9.56
2022-10-13T03:49:28.194Z,9.63
2022-10-13T03:50:28.253Z,9.56
2022-10-13T03:51:28.181Z,9.58
2022-10-13T03:52:28.178Z,9.62
2022-10-13T03:53:28.143Z,9.60
2022-10-13T03:54:28.150Z,9.68
2022-10-13T03:55:28.126Z,9.67
2022-10-13T03:56:28.710Z,9.67
2022-10-13T03:57:28.115Z,9.63
2022-10-13T03:58:28.111Z,9.62
2022-10-13T03:59:30.765Z,9.52
2022-10-13T04:00:28.078Z,9.58
2022-10-13T04:01:28.163Z,9.60
2022-10-13T04:02:28.054Z,9.58
2022-10-13T04:03:28.026Z,9.49
2022-10-13T04:04:28.043Z,9.44
2022-10-13T04:05:28.022Z,9.49
2022-10-13T04:06:28.183Z,9.52
2022-10-13T04:07:27.995Z,9.53
2022-10-13T04:08:27.991Z,9.53
2022-10-13T04:09:27.962Z,9.59
2022-10-13T04:10:28.980Z,9.60
2022-10-13T04:11:27.915Z,9.67
2022-10-13T04:12:28.177Z,9.62
2022-10-13T04:13:27.923Z,9.71
2022-10-13T04:14:27.919Z,9.59
2022-10-13T04:15:28.908Z,9.68
2022-10-13T04:16:27.884Z,9.68
2022-10-13T04:17:27.875Z,9.71
2022-10-13T04:18:27.884Z,9.70
2022-10-13T04:19:27.887Z,9.68
2022-10-13T04:20:27.843Z,9.68
2022-10-13T04:21:27.839Z,9.78
2022-10-13T04:22:27.915Z,9.65
2022-10-13T04:23:27.823Z,9.78
2022-10-13T04:24:27.804Z,9.73
2022-10-13T04:25:27.816Z,9.77
2022-10-13T04:26:27.795Z,9.86
2022-10-13T04:27:27.777Z,9.89
2022-10-13T04:28:27.803Z,9.93
2022-10-13T04:29:27.780Z,9.81
2022-10-13T04:30:27.747Z,9.92
2022-10-13T04:31:27.769Z,10.02
2022-10-13T04:32:27.717Z,9.88
2022-10-13T04:33:27.696Z,9.95
2022-10-13T04:34:27.702Z,9.89
2022-10-13T04:35:27.708Z,9.95
2022-10-13T04:36:27.679Z,9.93
2022-10-13T04:37:27.651Z,9.95
2022-10-13T04:38:27.633Z,9.96
2022-10-13T04:39:27.696Z,10.07
2022-10-13T04:40:27.642Z,9.89
2022-10-13T04:41:27.625Z,9.99
2022-10-13T04:42:27.589Z,10.01
2022-10-13T04:43:27.628Z,9.98
2022-10-13T04:44:27.601Z,9.93
2022-10-13T04:45:27.577Z,9.98
2022-10-13T04:46:27.557Z,9.91
2022-10-13T04:47:27.617Z,9.92
2022-10-13T04:48:27.558Z,9.88
2022-10-13T04:49:27.861Z,9.88
2022-10-13T04:50:27.519Z,9.93
2022-10-13T04:51:27.553Z,9.85
2022-10-13T04:52:27.553Z,9.89
2022-10-13T04:53:27.485Z,9.85
2022-10-13T04:54:27.517Z,9.81
2022-10-13T04:55:27.450Z,9.80
2022-10-13T04:56:27.434Z,9.85
2022-10-13T04:57:27.479Z,9.74
2022-10-13T04:58:27.413Z,9.73
2022-10-13T04:59:27.405Z,9.70
2022-10-13T05:00:27.477Z,9.62
2022-10-13T05:01:27.405Z,9.65
2022-10-13T05:02:27.393Z,9.68
2022-10-13T05:03:27.430Z,9.67
2022-10-13T05:04:27.370Z,9.58
2022-10-13T05:05:27.342Z,9.60
2022-10-13T05:06:27.353Z,9.67
2022-10-13T05:07:27.309Z,9.67
2022-10-13T05:08:27.303Z,9.70
2022-10-13T05:09:27.303Z,9.71
2022-10-13T05:10:30.195Z,9.59
2022-10-13T05:11:27.312Z,9.63
2022-10-13T05:12:27.297Z,9.56
2022-10-13T05:13:28.264Z,9.45
2022-10-13T05:14:27.256Z,9.26
2022-10-13T05:15:27.254Z,9.31
2022-10-13T05:16:27.259Z,9.16
2022-10-13T05:17:28.959Z,9.13
2022-10-13T05:18:27.194Z,9.20
2022-10-13T05:19:27.203Z,9.24
2022-10-13T05:20:27.182Z,9.40
2022-10-13T05:21:27.183Z,9.44
2022-10-13T05:22:27.162Z,9.40
2022-10-13T05:23:27.159Z,9.50
2022-10-13T05:24:27.167Z,9.35
2022-10-13T05:25:30.305Z,9.37
2022-10-13T05:26:29.738Z,9.52
2022-10-13T05:27:27.127Z,9.44
2022-10-13T05:28:27.130Z,9.42
2022-10-13T05:29:27.103Z,9.26
2022-10-13T05:30:27.104Z,9.19
2022-10-13T05:31:27.062Z,9.17
2022-10-13T05:32:27.051Z,9.03
2022-10-13T05:33:27.039Z,9.08
2022-10-13T05:34:27.004Z,9.03
2022-10-13T05:35:27.019Z,9.04
2022-10-13T05:36:27.051Z,8.97
2022-10-13T05:37:27.003Z,8.86
2022-10-13T05:38:26.985Z,8.94
2022-10-13T05:39:26.959Z,8.91
2022-10-13T05:40:26.947Z,8.91
2022-10-13T05:41:26.968Z,9.00
2022-10-13T05:42:26.936Z,8.96
2022-10-13T05:43:26.992Z,9.04
2022-10-13T05:44:26.905Z,8.93
2022-10-13T05:45:26.875Z,8.93
2022-10-13T05:46:26.880Z,8.88
2022-10-13T05:47:26.917Z,8.85
2022-10-13T05:48:27.873Z,8.86
2022-10-13T05:49:26.851Z,8.86
2022-10-13T05:50:26.855Z,8.91
2022-10-13T05:51:27.587Z,8.88
2022-10-13T05:52:26.872Z,8.88
2022-10-13T05:53:26.793Z,8.88
2022-10-13T05:54:26.824Z,8.82
2022-10-13T05:55:26.785Z,8.83
2022-10-13T05:56:26.830Z,9.00
2022-10-13T05:57:26.744Z,8.97
2022-10-13T05:58:26.788Z,9.08
2022-10-13T05:59:27.378Z,9.08
2022-10-13T06:00:27.737Z,9.13
2022-10-13T06:01:26.753Z,9.13
2022-10-13T06:02:26.696Z,9.03
2022-10-13T06:03:26.736Z,9.01
2022-10-13T06:04:26.705Z,9.01
2022-10-13T06:05:26.680Z,9.06
2022-10-13T06:06:30.581Z,9.01
2022-10-13T06:07:26.632Z,9.06
2022-10-13T06:08:26.670Z,9.04
2022-10-13T06:09:26.616Z,9.06
2022-10-13T06:10:26.716Z,9.12
2022-10-13T06:11:26.609Z,9.08
2022-10-13T06:12:26.631Z,9.20
2022-10-13T06:13:26.600Z,9.24
2022-10-13T06:14:27.241Z,9.17
2022-10-13T06:15:28.370Z,9.16
2022-10-13T06:16:27.581Z,9.16
2022-10-13T06:17:26.587Z,9.32
2022-10-13T06:18:26.557Z,9.24
2022-10-13T06:19:26.518Z,9.32
2022-10-13T06:20:26.569Z,9.31
2022-10-13T06:21:26.492Z,9.27
2022-10-13T06:22:26.487Z,9.22
2022-10-13T06:23:26.469Z,9.22
2022-10-13T06:24:26.489Z,9.32
2022-10-13T06:25:26.445Z,9.23
2022-10-13T06:26:26.438Z,9.31
2022-10-13T06:27:26.414Z,9.23
2022-10-13T06:28:26.472Z,9.26
2022-10-13T06:29:26.429Z,9.26
2022-10-13T06:30:26.383Z,9.20
2022-10-13T06:31:26.411Z,9.24
2022-10-13T06:32:26.389Z,9.31
2022-10-13T06:33:26.370Z,9.31
2022-10-13T06:34:26.351Z,9.34
2022-10-13T06:35:26.374Z,9.37
2022-10-13T06:36:26.374Z,9.37
2022-10-13T06:37:27.472Z,9.42
2022-10-13T06:38:27.318Z,9.41
2022-10-13T06:39:26.311Z,9.38
2022-10-13T06:40:26.312Z,9.34
2022-10-13T06:41:26.274Z,9.31
2022-10-13T06:42:26.258Z,9.24
2022-10-13T06:43:34.372Z,9.42
2022-10-13T06:44:28.303Z,9.37
2022-10-13T06:45:26.250Z,9.44
2022-10-13T06:46:26.263Z,9.44
2022-10-13T06:47:26.204Z,9.48
2022-10-13T06:48:26.211Z,9.38
2022-10-13T06:49:26.199Z,9.42
2022-10-13T06:50:26.195Z,9.53
2022-10-13T06:51:26.207Z,9.42
2022-10-13T06:52:27.183Z,9.59
2022-10-13T06:53:26.167Z,9.41
2022-10-13T06:54:26.130Z,9.55
2022-10-13T06:55:26.148Z,9.67
2022-10-13T06:56:26.118Z,9.65
2022-10-13T06:57:26.107Z,9.63
2022-10-13T06:58:26.087Z,9.52
2022-10-13T06:59:26.083Z,9.56
2022-10-13T07:00:26.091Z,9.41
2022-10-13T07:01:26.063Z,9.50
2022-10-13T07:02:26.048Z,9.55
2022-10-13T07:03:26.235Z,9.53
2022-10-13T07:04:26.052Z,9.60
2022-10-13T07:05:26.095Z,9.59
2022-10-13T07:06:25.992Z,9.67
2022-10-13T07:07:26.003Z,9.63
2022-10-13T07:08:25.999Z,9.63
2022-10-13T07:09:26.003Z,9.65
2022-10-13T07:10:25.964Z,9.65
2022-10-13T07:11:26.001Z,9.63
2022-10-13T07:12:25.946Z,9.62
2022-10-13T07:13:25.958Z,9.62
2022-10-13T07:14:25.900Z,9.60
2022-10-13T07:15:26.704Z,9.65
2022-10-13T07:16:25.956Z,9.59
2022-10-13T07:17:25.872Z,9.70
2022-10-13T07:18:25.857Z,9.70
2022-10-13T07:19:25.881Z,9.62
2022-10-13T07:20:25.900Z,9.63
2022-10-13T07:21:25.826Z,9.68
2022-10-13T07:22:25.845Z,9.68
2022-10-13T07:23:25.825Z,9.70
2022-10-13T07:24:25.826Z,9.67
2022-10-13T07:25:25.776Z,9.81
2022-10-13T07:26:25.756Z,9.73
2022-10-13T07:27:26.781Z,9.86
2022-10-13T07:28:25.829Z,9.78
2022-10-13T07:29:25.736Z,9.88
2022-10-13T07:30:25.761Z,9.86
2022-10-13T07:31:25.782Z,9.91
2022-10-13T07:32:25.677Z,9.86
2022-10-13T07:33:25.721Z,9.78
2022-10-13T07:34:25.665Z,9.93
2022-10-13T07:35:30.317Z,9.92
2022-10-13T07:36:26.672Z,9.96
2022-10-13T07:37:25.653Z,9.89
2022-10-13T07:38:25.662Z,9.88
2022-10-13T07:39:27.216Z,9.86
2022-10-13T07:40:25.620Z,9.89
2022-10-13T07:41:25.665Z,9.95
2022-10-13T07:42:25.611Z,9.85
2022-10-13T07:43:25.588Z,9.80
2022-10-13T07:44:25.655Z,9.78
2022-10-13T07:45:25.602Z,9.85
2022-10-13T07:46:25.527Z,9.83
2022-10-13T07:47:25.542Z,9.92
2022-10-13T07:48:25.609Z,9.89
2022-10-13T07:49:25.526Z,9.88
2022-10-13T07:50:25.551Z,9.91
2022-10-13T07:51:25.757Z,9.88
2022-10-13T07:52:25.505Z,9.91
2022-10-13T07:53:25.538Z,9.89
2022-10-13T07:54:27.520Z,9.92
2022-10-13T07:55:25.453Z,9.89
2022-10-13T07:56:25.469Z,9.96
2022-10-13T07:57:25.434Z,9.81
2022-10-13T07:58:25.526Z,9.95
2022-10-13T07:59:25.410Z,9.88
2022-10-13T08:00:25.397Z,9.96
2022-10-13T08:01:25.435Z,9.93
2022-10-13T08:02:25.382Z,10.04
2022-10-13T08:03:25.517Z,9.99
2022-10-13T08:04:25.376Z,10.02
2022-10-13T08:05:25.331Z,10.02
2022-10-13T08:06:25.305Z,9.99
2022-10-13T08:07:25.344Z,10.04
2022-10-13T08:08:25.305Z,10.10
2022-10-13T08:09:25.314Z,10.18
2022-10-13T08:10:25.308Z,10.17
2022-10-13T08:11:25.279Z,10.07
2022-10-13T08:12:25.283Z,10.07
2022-10-13T08:13:25.226Z,10.07
2022-10-13T08:14:25.466Z,10.11
2022-10-13T08:15:25.260Z,10.26
2022-10-13T08:16:25.209Z,10.31
2022-10-13T08:17:25.186Z,10.24
2022-10-13T08:18:25.190Z,10.26
2022-10-13T08:19:25.190Z,10.29
2022-10-13T08:20:28.860Z,10.26
2022-10-13T08:21:56.942Z,10.35
2022-10-13T08:22:28.418Z,10.31
2022-10-13T08:23:25.135Z,10.35
2022-10-13T08:24:25.126Z,10.28
2022-10-13T08:25:25.200Z,10.36
2022-10-13T08:26:25.125Z,10.22
2022-10-13T08:27:37.030Z,10.31
2022-10-13T08:28:26.136Z,10.29
2022-10-13T08:29:25.191Z,10.35
2022-10-13T08:30:25.144Z,10.34
2022-10-13T08:31:25.278Z,10.31
2022-10-13T08:32:25.043Z,10.32
2022-10-13T08:33:25.027Z,10.38
2022-10-13T08:34:25.118Z,10.43
2022-10-13T08:35:25.025Z,10.36
2022-10-13T08:36:25.128Z,10.29
2022-10-13T08:37:25.027Z,10.31
2022-10-13T08:38:25.663Z,10.39
2022-10-13T08:39:24.974Z,10.46
2022-10-13T08:40:25.016Z,10.36
2022-10-13T08:41:24.986Z,10.35
2022-10-13T08:42:25.023Z,10.34
2022-10-13T08:43:24.921Z,10.35
2022-10-13T08:45:40.828Z,10.42
2022-10-13T08:46:27.782Z,10.47
2022-10-13T08:47:27.700Z,10.51
2022-10-13T08:48:29.331Z,10.69
2022-10-13T08:49:26.087Z,10.62
2022-10-13T08:50:25.641Z,10.66
2022-10-13T08:51:25.840Z,10.87
2022-10-13T08:52:25.339Z,10.78
2022-10-13T08:54:57.008Z,10.76
2022-10-13T08:55:58.255Z,10.86
2022-10-13T08:56:58.190Z,10.93
2022-10-13T08:57:58.155Z,10.84
2022-10-13T08:58:58.968Z,10.90
2022-10-13T08:59:58.076Z,10.93
2022-10-13T09:00:58.172Z,10.94
2022-10-13T09:01:58.651Z,10.95
2022-10-13T09:03:00.231Z,10.95
2022-10-13T09:03:58.033Z,11.06
2022-10-13T09:04:59.020Z,11.06
2022-10-13T09:05:58.073Z,11.06
2022-10-13T09:06:58.025Z,11.16
2022-10-13T09:07:58.671Z,11.23
2022-10-13T09:08:57.987Z,11.13
2022-10-13T09:09:58.220Z,11.17
2022-10-13T09:10:58.196Z,11.17
2022-10-13T09:11:58.284Z,11.24
2022-10-13T09:12:57.952Z,11.19
2022-10-13T09:13:59.489Z,11.13
2022-10-13T09:14:58.561Z,11.11
2022-10-13T09:15:58.304Z,11.19
2022-10-13T09:16:58.772Z,11.06
2022-10-13T09:17:58.817Z,11.17
2022-10-13T09:18:57.943Z,11.20
2022-10-13T09:19:58.152Z,11.16
2022-10-13T09:20:58.164Z,11.13
2022-10-13T09:21:57.853Z,11.17
2022-10-13T09:22:58.200Z,11.19
2022-10-13T09:23:58.297Z,11.30
2022-10-13T09:24:58.849Z,11.23
2022-10-13T09:25:58.225Z,11.23
2022-10-13T09:26:57.938Z,11.21
2022-10-13T09:27:58.391Z,11.13
2022-10-13T09:28:58.815Z,11.13
2022-10-13T09:29:57.747Z,11.12
2022-10-13T09:30:57.814Z,11.16
2022-10-13T09:31:58.881Z,11.24
2022-10-13T09:32:57.946Z,11.21
2022-10-13T09:33:57.822Z,11.23
2022-10-13T09:34:57.929Z,11.16
2022-10-13T09:35:57.677Z,11.19
2022-10-13T09:36:58.117Z,11.23
2022-10-13T09:37:57.794Z,11.28
2022-10-13T09:38:57.699Z,11.36
2022-10-13T09:39:58.257Z,11.42
2022-10-13T09:40:57.838Z,11.45
2022-10-13T09:41:57.609Z,11.48
2022-10-13T09:42:58.285Z,11.54
2022-10-13T09:43:57.718Z,11.42
2022-10-13T09:44:57.613Z,11.57
2022-10-13T09:45:57.779Z,11.44
2022-10-13T09:46:57.570Z,11.59
2022-10-13T09:47:57.768Z,11.51
2022-10-13T09:48:57.737Z,11.62
2022-10-13T09:49:57.521Z,11.48
2022-10-13T09:50:57.527Z,11.46
2022-10-13T09:51:57.599Z,11.41
2022-10-13T09:52:58.804Z,11.44
2022-10-13T09:53:57.801Z,11.44
2022-10-13T09:54:57.475Z,11.41
2022-10-13T09:55:57.847Z,11.42
2022-10-13T09:56:58.739Z,11.45
2022-10-13T09:57:57.742Z,11.36
2022-10-13T09:58:58.037Z,11.35
2022-10-13T09:59:57.780Z,11.33
2022-10-13T10:00:57.677Z,11.35
2022-10-13T10:01:57.410Z,11.33
2022-10-13T10:02:59.015Z,11.27
2022-10-13T10:03:58.876Z,11.39
2022-10-13T10:04:57.395Z,11.33
2022-10-13T10:05:57.996Z,11.33
2022-10-13T10:06:57.340Z,11.39
2022-10-13T10:07:57.335Z,11.33
2022-10-13T10:09:03.119Z,11.38
2022-10-13T10:10:00.031Z,11.28
2022-10-13T10:10:58.308Z,11.38
2022-10-13T10:11:57.414Z,11.36
2022-10-13T10:12:57.907Z,11.56
2022-10-13T10:13:57.917Z,11.57
2022-10-13T10:15:00.055Z,11.64
2022-10-13T10:15:58.872Z,11.70
2022-10-13T10:16:58.752Z,11.77
2022-10-13T10:17:57.403Z,11.81
2022-10-13T10:18:58.874Z,11.79
2022-10-13T10:19:58.376Z,11.85
2022-10-13T10:20:57.268Z,11.84
2022-10-13T10:21:57.216Z,11.87
2022-10-13T10:22:57.216Z,11.94
2022-10-13T10:23:57.230Z,12.03
2022-10-13T10:24:57.185Z,12.12
2022-10-13T10:25:57.196Z,12.23
2022-10-13T10:26:57.179Z,12.13
2022-10-13T10:27:57.477Z,12.19
2022-10-13T10:28:57.201Z,12.11
2022-10-13T10:29:57.161Z,12.13
2022-10-13T10:30:57.137Z,12.21
2022-10-13T10:31:57.194Z,12.15
2022-10-13T10:32:57.097Z,12.29
2022-10-13T10:33:57.165Z,12.37
2022-10-13T10:34:57.086Z,12.37
2022-10-13T10:35:57.053Z,12.41
2022-10-13T10:36:57.044Z,12.44
2022-10-13T10:37:57.043Z,12.56
2022-10-13T10:38:57.017Z,12.61
2022-10-13T10:39:57.016Z,12.62
2022-10-13T10:40:57.000Z,12.67
2022-10-13T10:41:56.997Z,12.61
2022-10-13T10:42:56.989Z,12.63
2022-10-13T10:43:56.969Z,12.63
2022-10-13T10:44:56.962Z,12.58
2022-10-13T10:45:56.934Z,12.66
2022-10-13T10:46:56.958Z,12.63
2022-10-13T10:47:56.953Z,12.69
2022-10-13T10:48:56.898Z,12.73
2022-10-13T10:49:56.961Z,12.79
2022-10-13T10:50:56.896Z,12.81
2022-10-13T10:51:56.885Z,12.80
2022-10-13T10:52:57.145Z,12.85
2022-10-13T10:53:56.896Z,12.88
2022-10-13T10:54:56.869Z,12.95
2022-10-13T10:55:56.831Z,12.91
2022-10-13T10:56:56.828Z,13.04
2022-10-13T10:57:56.821Z,13.07
2022-10-13T10:58:56.810Z,13.13
2022-10-13T10:59:56.825Z,13.12
2022-10-13T11:00:56.769Z,13.16
2022-10-13T11:01:56.822Z,13.25
2022-10-13T11:02:56.779Z,13.36
2022-10-13T11:03:56.776Z,13.47
2022-10-13T11:05:02.106Z,13.51
2022-10-13T11:05:57.755Z,13.68
2022-10-13T11:06:56.770Z,13.68
2022-10-13T11:07:56.742Z,13.75
2022-10-13T11:08:56.718Z,13.75
2022-10-13T11:09:56.706Z,13.91
2022-10-13T11:10:56.732Z,13.87
2022-10-13T11:11:56.657Z,14.05
2022-10-13T11:12:56.649Z,14.19
2022-10-13T11:13:56.779Z,14.26
2022-10-13T11:14:56.794Z,14.31
2022-10-13T11:15:56.655Z,14.30
2022-10-13T11:16:57.210Z,14.54
2022-10-13T11:17:56.639Z,14.53
2022-10-13T11:18:56.618Z,14.49
2022-10-13T11:19:56.567Z,14.39
2022-10-13T11:20:56.586Z,14.38
2022-10-13T11:21:56.556Z,14.23
2022-10-13T11:22:56.566Z,14.17
2022-10-13T11:24:01.745Z,14.13
2022-10-13T11:24:57.558Z,14.13
2022-10-13T11:25:56.519Z,14.13
2022-10-13T11:26:56.492Z,14.05
2022-10-13T11:27:56.491Z,14.23
2022-10-13T11:28:56.523Z,14.19
2022-10-13T11:29:56.451Z,14.16
2022-10-13T11:30:56.536Z,14.35
2022-10-13T11:31:56.425Z,14.36
2022-10-13T11:32:57.227Z,14.34
2022-10-13T11:33:56.435Z,14.27
2022-10-13T11:34:56.440Z,14.34
2022-10-13T11:35:56.447Z,14.36
2022-10-13T11:36:56.386Z,14.34
2022-10-13T11:38:06.725Z,14.31
2022-10-13T11:38:58.376Z,14.23
2022-10-13T11:39:56.363Z,14.35
2022-10-13T11:40:56.359Z,14.46
2022-10-13T11:41:56.341Z,14.59
2022-10-13T11:42:58.498Z,14.66
2022-10-13T11:43:56.335Z,14.75
2022-10-13T11:44:56.296Z,14.71
2022-10-13T11:45:56.327Z,14.82
2022-10-13T11:46:56.301Z,14.67
2022-10-13T11:47:56.401Z,14.66
2022-10-13T11:48:56.244Z,14.61
2022-10-13T11:49:56.245Z,14.56
2022-10-13T11:50:56.280Z,14.59
2022-10-13T11:51:56.241Z,14.61
2022-10-13T11:52:56.280Z,14.61
2022-10-13T11:53:56.230Z,14.53
2022-10-13T11:54:56.205Z,14.53
2022-10-13T11:55:56.216Z,14.38
2022-10-13T11:56:56.227Z,14.48
2022-10-13T11:57:56.200Z,14.30
2022-10-13T11:58:56.157Z,14.41
2022-10-13T11:59:56.179Z,14.41
2022-10-13T12:00:56.142Z,14.52
2022-10-13T12:01:56.089Z,14.57
2022-10-13T12:02:56.118Z,14.66
2022-10-13T12:03:56.120Z,14.60
2022-10-13T12:04:56.076Z,14.53
2022-10-13T12:05:56.057Z,14.52
2022-10-13T12:06:56.105Z,14.48
2022-10-13T12:07:56.068Z,14.49
2022-10-13T12:08:56.030Z,14.36
2022-10-13T12:09:56.070Z,14.48
2022-10-13T12:10:56.014Z,14.26
2022-10-13T12:11:56.030Z,14.24
2022-10-13T12:12:56.016Z,14.27
2022-10-13T12:13:56.034Z,14.35
2022-10-13T12:14:59.817Z,14.42
2022-10-13T12:15:55.990Z,14.44
2022-10-13T12:17:56.128Z,14.41
2022-10-13T12:18:55.991Z,14.44
2022-10-13T12:19:56.061Z,14.39
2022-10-13T12:20:55.953Z,14.44
2022-10-13T12:21:55.902Z,14.36
2022-10-13T12:22:55.937Z,14.42
2022-10-13T12:23:55.906Z,14.41
2022-10-13T12:24:55.894Z,14.53
2022-10-13T12:25:55.850Z,14.38
2022-10-13T12:26:55.839Z,14.44
2022-10-13T12:27:55.894Z,14.54
2022-10-13T12:28:56.025Z,14.57
2022-10-13T12:29:55.821Z,14.57
2022-10-13T12:30:56.707Z,14.60
2022-10-13T12:31:55.791Z,14.60
2022-10-13T12:32:56.595Z,14.67
2022-10-13T12:33:55.846Z,14.63
2022-10-13T12:34:55.992Z,14.60
2022-10-13T12:35:55.887Z,14.59
2022-10-13T12:36:55.730Z,14.56
2022-10-13T12:37:55.766Z,14.57
2022-10-13T12:38:55.739Z,14.57
2022-10-13T12:39:55.727Z,14.54
2022-10-13T12:40:56.222Z,14.53
2022-10-13T12:41:55.824Z,14.48
2022-10-13T12:42:55.874Z,14.52
2022-10-13T12:43:55.656Z,14.53
2022-10-13T12:44:56.170Z,14.54
2022-10-13T12:45:55.636Z,14.46
2022-10-13T12:46:55.639Z,14.46
2022-10-13T12:47:55.796Z,14.46
2022-10-13T12:48:55.700Z,14.54
2022-10-13T12:49:55.639Z,14.38
2022-10-13T12:50:55.613Z,14.52
2022-10-13T12:51:55.581Z,14.36
2022-10-13T12:52:55.723Z,14.29
2022-10-13T12:53:55.593Z,14.24
2022-10-13T12:54:55.541Z,14.19
2022-10-13T12:55:55.569Z,14.26
2022-10-13T12:56:56.582Z,14.27
2022-10-13T12:57:55.560Z,14.35
2022-10-13T12:58:55.535Z,14.27
2022-10-13T12:59:55.519Z,14.20
2022-10-13T13:00:55.533Z,14.24
2022-10-13T13:01:55.489Z,14.26
2022-10-13T13:02:55.520Z,14.34
2022-10-13T13:03:55.496Z,14.30
2022-10-13T13:04:55.455Z,14.31
2022-10-13T13:05:59.910Z,14.21
2022-10-13T13:06:56.523Z,14.23
2022-10-13T13:07:55.429Z,14.35
2022-10-13T13:08:55.441Z,14.44
2022-10-13T13:09:55.440Z,14.38
2022-10-13T13:10:55.393Z,14.31
2022-10-13T13:11:56.380Z,14.42